Time;durP1;ratioP1;P1;durP2;ratioP2;P2;SDS_P1;SDS_P2;PMS_P1;PMS_P2;Temp;Humidity;BMP_temperature;BMP_pressure;BME280_temperature;BME280_humidity;BME280_pressure;Samples;Min_cycle;Max_cycle;Signal;HPM_P1;HPM_P2
2023/01/19 00:01:18;;;;;;;5.07;2.38;;;2.90;99.90;;;;;;5041077;28;20045;-63
2023/01/19 00:03:44;;;;;;;2.78;2.00;;;2.80;99.90;;;;;;5050643;28;20044;-63
2023/01/19 00:06:10;;;;;;;3.67;2.15;;;2.80;99.90;;;;;;5092618;28;20047;-62
2023/01/19 00:08:37;;;;;;;3.83;2.20;;;2.80;99.90;;;;;;5052992;28;20448;-63
2023/01/19 00:11:04;;;;;;;3.83;2.22;;;2.80;99.90;;;;;;5052552;28;20395;-63
2023/01/19 00:13:30;;;;;;;4.63;2.47;;;2.80;99.90;;;;;;5053727;28;20062;-62
2023/01/19 00:15:56;;;;;;;3.65;2.30;;;2.80;99.90;;;;;;5051985;28;20037;-63
2023/01/19 00:18:21;;;;;;;2.83;1.95;;;2.70;99.90;;;;;;5056522;28;20040;-62
2023/01/19 00:20:47;;;;;;;2.97;1.80;;;2.60;99.90;;;;;;5067079;28;20032;-61
2023/01/19 00:26:41;;;;;;;2.85;1.50;;;2.60;99.90;;;;;;5208136;22;20133;-63
2023/01/19 00:29:11;;;;;;;1.65;1.30;;;2.50;99.90;;;;;;5032430;28;20846;-63
2023/01/19 00:31:37;;;;;;;1.40;1.30;;;2.50;99.90;;;;;;5028726;28;20033;-63
2023/01/19 00:34:03;;;;;;;4.18;1.65;;;2.60;99.90;;;;;;5036392;28;20121;-62
2023/01/19 00:36:29;;;;;;;2.35;1.42;;;2.50;99.90;;;;;;5032379;28;20045;-63
2023/01/19 00:38:55;;;;;;;1.77;1.50;;;2.50;99.90;;;;;;5046217;28;20411;-63
2023/01/19 00:42:38;;;;;;;2.30;1.75;;;2.50;99.90;;;;;;5032833;28;20373;-61
2023/01/19 00:44:06;;;;;;;2.38;1.67;;;2.50;99.90;;;;;;5029723;28;20042;-64
2023/01/19 00:46:32;;;;;;;2.65;1.70;;;2.40;99.90;;;;;;5029964;28;20033;-64
2023/01/19 00:48:57;;;;;;;3.05;2.00;;;2.40;99.90;;;;;;5047222;28;20123;-63
2023/01/19 00:51:24;;;;;;;3.63;2.40;;;2.40;99.90;;;;;;5027991;28;20052;-63
2023/01/19 00:53:50;;;;;;;4.32;2.70;;;2.40;99.90;;;;;;5031631;28;20040;-62
2023/01/19 00:56:16;;;;;;;4.55;3.10;;;2.30;99.90;;;;;;5035200;28;20658;-64
2023/01/19 00:58:43;;;;;;;6.53;4.28;;;2.30;99.90;;;;;;5039159;28;20052;-63
2023/01/19 01:01:09;;;;;;;6.00;4.13;;;2.30;99.90;;;;;;5018098;28;20510;-61
2023/01/19 01:03:35;;;;;;;6.70;4.55;;;2.20;99.90;;;;;;5023004;28;20124;-65
2023/01/19 01:06:02;;;;;;;6.82;4.82;;;2.20;99.90;;;;;;5023136;28;20046;-62
2023/01/19 01:08:28;;;;;;;7.65;5.18;;;2.20;99.90;;;;;;5039863;28;20041;-62
2023/01/19 01:10:54;;;;;;;7.47;5.40;;;2.20;99.90;;;;;;5028892;28;20204;-62
2023/01/19 01:13:20;;;;;;;7.57;5.47;;;2.20;99.90;;;;;;5033930;28;20061;-61
2023/01/19 01:15:49;;;;;;;7.90;5.53;;;2.20;99.90;;;;;;5025748;28;20083;-62
2023/01/19 01:18:15;;;;;;;8.30;5.47;;;2.20;99.90;;;;;;5023166;28;20038;-61
2023/01/19 01:20:41;;;;;;;8.57;6.30;;;2.20;99.90;;;;;;5030766;28;20091;-61
2023/01/19 01:23:07;;;;;;;12.05;6.72;;;2.20;99.90;;;;;;5031287;28;20511;-62
2023/01/19 01:25:36;;;;;;;8.85;6.43;;;2.20;99.90;;;;;;5031354;28;20113;-61
2023/01/19 01:28:07;;;;;;;10.25;6.50;;;2.20;99.90;;;;;;5033262;28;20519;-62
2023/01/19 01:30:38;;;;;;;10.20;7.15;;;2.20;99.90;;;;;;5022442;28;20036;-62
2023/01/19 01:33:04;;;;;;;10.43;7.22;;;2.20;99.90;;;;;;5035839;28;20050;-62
2023/01/19 01:35:32;;;;;;;10.57;7.32;;;2.20;99.90;;;;;;5027616;28;20042;-62
2023/01/19 01:37:59;;;;;;;11.35;7.38;;;2.20;99.90;;;;;;5029738;28;20053;-62
2023/01/19 01:40:25;;;;;;;10.77;7.93;;;2.20;99.90;;;;;;5026924;28;20057;-60
2023/01/19 01:42:51;;;;;;;12.88;8.65;;;2.20;99.90;;;;;;5037447;28;20039;-62
2023/01/19 01:45:32;;;;;;;14.90;9.00;;;2.20;99.90;;;;;;5034496;28;20121;-62
2023/01/19 01:48:04;;;;;;;15.10;9.05;;;2.20;99.90;;;;;;5036347;28;20037;-61
2023/01/19 01:50:32;;;;;;;15.00;10.37;;;2.20;99.90;;;;;;5021735;28;20104;-60
2023/01/19 01:53:09;;;;;;;13.77;9.48;;;2.30;99.90;;;;;;5040835;28;20321;-61
2023/01/19 01:55:47;;;;;;;14.23;9.45;;;2.30;99.90;;;;;;5030711;28;20033;-62
2023/01/19 01:58:15;;;;;;;15.63;9.90;;;2.30;99.90;;;;;;5023334;28;20033;-61
2023/01/19 02:03:25;;;;;;;15.60;10.52;;;2.30;99.90;;;;;;5027508;28;20118;-62
2023/01/19 02:05:56;;;;;;;16.52;10.57;;;2.30;99.90;;;;;;5035322;28;20079;-62
2023/01/19 02:14:05;;;;;;;16.50;10.65;;;2.30;99.90;;;;;;5032559;28;20045;-62
2023/01/19 02:16:31;;;;;;;16.10;10.32;;;2.30;99.90;;;;;;5038398;28;20503;-61
2023/01/19 02:18:57;;;;;;;16.17;10.32;;;2.30;99.90;;;;;;5033630;28;20043;-61
2023/01/19 02:21:28;;;;;;;16.55;10.30;;;2.40;99.90;;;;;;5035328;28;20038;-61
2023/01/19 02:23:56;;;;;;;15.98;10.73;;;2.40;99.90;;;;;;5033684;28;20037;-62
2023/01/19 02:26:38;;;;;;;18.27;11.30;;;2.40;99.90;;;;;;5040151;28;20091;-61
2023/01/19 02:29:07;;;;;;;16.30;10.60;;;2.40;99.90;;;;;;5034515;28;20067;-62
2023/01/19 02:31:36;;;;;;;17.00;11.07;;;2.40;99.90;;;;;;5026995;28;20076;-61
2023/01/19 02:34:03;;;;;;;19.15;10.88;;;2.40;99.90;;;;;;5029330;28;20083;-61
2023/01/19 02:36:38;;;;;;;14.85;10.38;;;2.40;99.90;;;;;;5029535;28;20040;-62
2023/01/19 02:39:05;;;;;;;17.98;11.25;;;2.40;99.90;;;;;;5042664;28;20124;-62
2023/01/19 02:41:36;;;;;;;15.60;10.18;;;2.40;99.90;;;;;;5042950;28;20589;-61
2023/01/19 02:44:03;;;;;;;15.27;9.73;;;2.40;99.90;;;;;;5042593;28;20564;-62
2023/01/19 02:46:29;;;;;;;17.45;10.60;;;2.40;99.90;;;;;;5024849;28;20574;-61
2023/01/19 02:49:01;;;;;;;13.98;10.07;;;2.40;99.90;;;;;;5041123;28;20128;-61
2023/01/19 02:51:31;;;;;;;15.30;10.40;;;2.40;99.90;;;;;;5035708;28;20508;-61
2023/01/19 02:54:23;;;;;;;16.95;11.25;;;2.40;99.90;;;;;;5036833;28;20045;-61
2023/01/19 02:57:07;;;;;;;13.85;10.18;;;2.40;99.90;;;;;;5039002;28;20044;-61
2023/01/19 02:59:52;;;;;;;14.35;10.98;;;2.40;99.90;;;;;;5042522;28;20116;-62
2023/01/19 03:02:41;;;;;;;15.27;10.48;;;2.40;99.90;;;;;;5030711;28;20403;-61
2023/01/19 03:05:32;;;;;;;16.45;10.80;;;2.40;99.90;;;;;;5035850;28;20044;-62
2023/01/19 03:08:19;;;;;;;14.52;9.90;;;2.30;99.90;;;;;;5023212;28;20045;-63
2023/01/19 03:10:55;;;;;;;17.48;10.45;;;2.30;99.90;;;;;;5031606;28;20044;-62
2023/01/19 03:13:26;;;;;;;12.55;8.80;;;2.30;99.90;;;;;;5032159;28;20098;-62
2023/01/19 03:15:57;;;;;;;13.98;9.82;;;2.30;99.90;;;;;;5041148;28;20049;-63
2023/01/19 03:18:28;;;;;;;15.32;8.90;;;2.30;99.90;;;;;;5033105;28;20037;-61
2023/01/19 03:20:57;;;;;;;11.85;8.60;;;2.30;99.90;;;;;;5029714;28;20041;-62
2023/01/19 03:23:27;;;;;;;12.25;8.77;;;2.30;99.90;;;;;;5033279;28;20040;-63
2023/01/19 03:25:55;;;;;;;12.65;8.65;;;2.30;99.90;;;;;;5032396;28;20061;-63
2023/01/19 03:28:24;;;;;;;13.13;8.57;;;2.30;99.90;;;;;;5030537;28;20421;-59
2023/01/19 03:31:00;;;;;;;13.55;8.90;;;2.20;99.90;;;;;;5031075;28;20048;-63
2023/01/19 03:33:37;;;;;;;13.30;8.65;;;2.30;99.90;;;;;;5040471;28;20365;-60
2023/01/19 03:36:11;;;;;;;12.60;8.57;;;2.20;99.90;;;;;;5039204;28;20029;-60
2023/01/19 03:38:40;;;;;;;11.80;7.97;;;2.20;99.90;;;;;;5023222;28;20527;-64
2023/01/19 03:41:12;;;;;;;12.75;8.05;;;2.20;99.90;;;;;;5027764;28;20060;-61
2023/01/19 03:43:38;;;;;;;12.63;8.18;;;2.20;99.90;;;;;;5024188;28;20042;-60
2023/01/19 03:46:05;;;;;;;10.13;6.80;;;2.20;99.90;;;;;;5044412;28;20044;-62
2023/01/19 03:48:32;;;;;;;8.82;6.10;;;2.20;99.90;;;;;;5040418;28;20044;-60
2023/01/19 03:51:01;;;;;;;8.75;5.63;;;2.20;99.90;;;;;;5037984;28;20050;-60
2023/01/19 03:53:26;;;;;;;9.50;5.65;;;2.20;99.90;;;;;;5037204;28;20094;-60
2023/01/19 03:55:53;;;;;;;7.65;4.65;;;2.10;99.90;;;;;;5032554;28;20112;-63
2023/01/19 03:58:18;;;;;;;7.10;4.43;;;2.10;99.90;;;;;;5030196;28;20049;-61
2023/01/19 04:00:44;;;;;;;7.22;4.35;;;2.10;99.90;;;;;;5028719;28;20048;-61
2023/01/19 04:03:13;;;;;;;7.07;4.40;;;2.10;99.90;;;;;;5035609;28;20042;-61
2023/01/19 04:05:39;;;;;;;7.05;4.47;;;2.10;99.90;;;;;;5039070;28;20047;-60
2023/01/19 04:08:06;;;;;;;6.90;4.30;;;2.10;99.90;;;;;;5041111;28;20400;-61
2023/01/19 04:10:31;;;;;;;7.82;4.78;;;2.20;99.90;;;;;;5038538;28;20037;-60
2023/01/19 04:12:59;;;;;;;8.52;4.72;;;2.20;99.90;;;;;;5030622;28;20045;-60
2023/01/19 04:15:25;;;;;;;8.15;4.50;;;2.20;99.90;;;;;;5047002;28;20032;-62
2023/01/19 04:17:51;;;;;;;8.50;4.95;;;2.20;99.90;;;;;;5027655;28;20373;-62
2023/01/19 04:20:17;;;;;;;9.48;4.82;;;2.30;99.90;;;;;;5039199;28;20055;-63
2023/01/19 04:22:43;;;;;;;9.25;4.72;;;2.30;99.90;;;;;;5038506;28;20562;-61
2023/01/19 04:25:09;;;;;;;8.38;4.68;;;2.30;99.90;;;;;;5032011;28;20650;-62
2023/01/19 04:27:35;;;;;;;8.90;4.45;;;2.30;99.90;;;;;;5038603;28;20483;-61
2023/01/19 04:30:02;;;;;;;8.18;5.18;;;2.40;99.90;;;;;;5041406;28;20325;-60
2023/01/19 04:32:29;;;;;;;8.35;4.88;;;2.40;99.90;;;;;;5032673;28;20056;-61
2023/01/19 04:34:54;;;;;;;7.53;4.50;;;2.40;99.90;;;;;;5040061;28;20079;-61
2023/01/19 04:37:20;;;;;;;10.45;4.90;;;2.40;99.90;;;;;;5047393;28;20503;-62
2023/01/19 04:39:46;;;;;;;9.98;5.10;;;2.40;99.90;;;;;;5032784;28;20080;-62
2023/01/19 04:42:12;;;;;;;7.35;4.10;;;2.40;99.90;;;;;;5027915;28;20069;-62
2023/01/19 04:44:38;;;;;;;9.85;4.10;;;2.40;99.90;;;;;;5035031;28;20459;-63
2023/01/19 04:47:03;;;;;;;8.23;3.47;;;2.40;99.90;;;;;;5039096;28;20552;-61
2023/01/19 04:49:29;;;;;;;6.88;3.40;;;2.50;99.90;;;;;;5037120;28;20049;-61
2023/01/19 04:51:55;;;;;;;6.30;3.08;;;2.60;99.90;;;;;;5029806;28;20488;-61
2023/01/19 04:54:21;;;;;;;8.73;3.03;;;2.60;99.90;;;;;;5021028;28;20033;-61
2023/01/19 04:56:46;;;;;;;9.15;2.70;;;2.70;99.90;;;;;;5030674;28;20026;-61
2023/01/19 04:59:12;;;;;;;12.13;2.45;;;2.70;99.90;;;;;;5041648;28;20120;-61
2023/01/19 05:01:38;;;;;;;10.88;1.85;;;2.80;99.90;;;;;;5035501;28;20530;-62
2023/01/19 05:04:05;;;;;;;7.63;1.75;;;2.80;99.90;;;;;;5023457;28;20038;-60
2023/01/19 05:06:32;;;;;;;16.13;1.80;;;2.90;99.90;;;;;;5028428;28;20033;-61
2023/01/19 05:08:58;;;;;;;11.73;1.75;;;3.00;99.90;;;;;;5032092;28;20498;-61
2023/01/19 05:11:24;;;;;;;8.02;1.40;;;3.10;99.90;;;;;;5035784;28;20414;-61
2023/01/19 05:13:50;;;;;;;17.88;2.63;;;3.20;99.90;;;;;;5030006;28;20045;-61
2023/01/19 05:16:16;;;;;;;12.45;1.67;;;3.30;99.90;;;;;;5022433;28;20527;-62
2023/01/19 05:18:41;;;;;;;9.20;1.63;;;3.30;99.90;;;;;;5029930;28;20040;-61
2023/01/19 05:21:07;;;;;;;9.13;1.55;;;3.40;99.90;;;;;;5026449;28;20467;-61
2023/01/19 05:23:33;;;;;;;12.50;1.42;;;3.40;99.90;;;;;;5028306;28;20038;-64
2023/01/19 05:26:00;;;;;;;8.40;1.30;;;3.50;99.90;;;;;;5031312;28;20447;-61
2023/01/19 05:28:30;;;;;;;7.45;1.10;;;3.60;99.90;;;;;;5031919;28;20087;-62
2023/01/19 05:30:56;;;;;;;6.80;0.93;;;3.60;99.90;;;;;;5030562;28;20045;-61
2023/01/19 05:33:22;;;;;;;4.28;1.00;;;3.60;99.90;;;;;;5027155;28;20033;-61
2023/01/19 05:35:52;;;;;;;6.32;1.42;;;3.70;99.90;;;;;;5029806;28;20061;-61
2023/01/19 05:38:18;;;;;;;6.47;0.80;;;3.70;99.90;;;;;;5029612;28;20076;-63
2023/01/19 05:40:43;;;;;;;5.03;1.00;;;3.70;99.90;;;;;;5027012;28;20037;-63
2023/01/19 05:43:09;;;;;;;4.57;1.10;;;3.80;99.90;;;;;;5024934;28;20033;-62
2023/01/19 05:45:37;;;;;;;4.32;0.82;;;3.80;99.90;;;;;;5029806;28;20037;-63
2023/01/19 05:48:04;;;;;;;7.07;0.98;;;3.80;99.90;;;;;;5040099;28;20042;-63
2023/01/19 05:50:30;;;;;;;5.55;0.68;;;3.80;99.90;;;;;;5043146;28;20092;-61
2023/01/19 05:52:56;;;;;;;5.78;1.05;;;3.80;99.90;;;;;;5039101;28;20400;-62
2023/01/19 05:55:22;;;;;;;6.20;0.80;;;3.80;99.90;;;;;;5041381;28;20061;-63
2023/01/19 05:57:48;;;;;;;5.85;0.90;;;3.80;99.90;;;;;;5037192;28;20076;-62
2023/01/19 06:00:14;;;;;;;6.90;0.70;;;3.70;99.90;;;;;;5026171;28;20040;-63
2023/01/19 06:02:39;;;;;;;3.53;0.90;;;3.80;99.90;;;;;;5014904;28;20525;-63
2023/01/19 06:05:05;;;;;;;3.42;0.73;;;3.70;99.90;;;;;;5021469;28;20429;-63
2023/01/19 06:07:31;;;;;;;2.47;0.70;;;3.70;99.90;;;;;;5017448;28;20077;-63
2023/01/19 06:09:57;;;;;;;4.35;0.60;;;3.60;99.90;;;;;;5013719;28;20073;-64
2023/01/19 06:12:23;;;;;;;6.32;1.00;;;3.60;99.90;;;;;;5017236;28;20064;-63
2023/01/19 06:14:49;;;;;;;5.00;0.77;;;3.50;99.90;;;;;;5018234;28;20480;-62
2023/01/19 06:17:15;;;;;;;3.42;0.90;;;3.50;99.90;;;;;;5018960;28;20080;-62
2023/01/19 06:19:41;;;;;;;8.88;1.25;;;3.50;99.90;;;;;;5017324;28;20077;-63
2023/01/19 06:22:07;;;;;;;4.70;0.82;;;3.50;99.90;;;;;;5019260;28;20049;-62
2023/01/19 06:24:33;;;;;;;4.65;0.75;;;3.40;99.90;;;;;;5012223;28;20157;-62
2023/01/19 06:27:01;;;;;;;5.38;0.85;;;3.40;99.90;;;;;;5029743;28;20141;-63
2023/01/19 06:29:27;;;;;;;6.35;1.02;;;3.40;99.90;;;;;;5040068;28;20041;-62
2023/01/19 06:31:52;;;;;;;3.00;0.82;;;3.40;99.90;;;;;;5036899;28;20110;-63
2023/01/19 06:34:18;;;;;;;6.43;1.23;;;3.30;99.90;;;;;;5031254;28;20041;-61
2023/01/19 06:36:45;;;;;;;6.53;0.90;;;3.30;99.90;;;;;;5042884;28;20063;-62
2023/01/19 06:39:11;;;;;;;8.02;1.40;;;3.30;99.90;;;;;;5011864;28;20538;-64
2023/01/19 06:41:37;;;;;;;6.38;1.38;;;3.20;99.90;;;;;;5029979;28;20112;-63
2023/01/19 06:44:03;;;;;;;10.10;1.45;;;3.20;99.90;;;;;;5035890;28;20183;-63
2023/01/19 06:46:30;;;;;;;8.32;1.40;;;3.20;99.90;;;;;;5019082;28;20034;-62
2023/01/19 06:48:55;;;;;;;8.30;1.48;;;3.20;99.90;;;;;;5045217;28;20113;-62
2023/01/19 06:51:22;;;;;;;12.40;2.13;;;3.20;99.90;;;;;;5042680;28;20571;-63
2023/01/19 06:53:47;;;;;;;9.25;1.38;;;3.20;99.90;;;;;;5040434;28;20477;-63
2023/01/19 06:56:13;;;;;;;10.88;1.85;;;3.20;99.90;;;;;;5044313;28;20029;-62
2023/01/19 06:58:40;;;;;;;10.90;1.90;;;3.30;99.90;;;;;;5027457;28;20624;-61
2023/01/19 07:01:07;;;;;;;15.75;2.33;;;3.30;99.90;;;;;;5028912;28;20049;-62
2023/01/19 07:03:33;;;;;;;18.45;2.00;;;3.30;99.90;;;;;;5031973;28;20046;-61
2023/01/19 07:06:01;;;;;;;12.35;1.90;;;3.30;99.90;;;;;;5027556;28;20065;-61
2023/01/19 07:08:27;;;;;;;12.65;1.83;;;3.30;99.90;;;;;;5027922;28;20038;-62
2023/01/19 07:11:00;;;;;;;14.85;2.30;;;3.30;99.90;;;;;;5023247;28;20447;-62
2023/01/19 07:13:25;;;;;;;13.85;1.90;;;3.30;99.90;;;;;;5028924;28;20041;-61
2023/01/19 07:15:51;;;;;;;15.55;1.73;;;3.40;99.90;;;;;;5026401;28;20400;-61
2023/01/19 07:18:17;;;;;;;12.77;1.58;;;3.40;99.90;;;;;;5029886;28;20041;-62
2023/01/19 07:20:44;;;;;;;10.57;2.13;;;3.40;99.90;;;;;;5027092;28;20042;-62
2023/01/19 07:23:10;;;;;;;12.00;1.63;;;3.40;99.90;;;;;;5027704;28;20041;-64
2023/01/19 07:25:36;;;;;;;12.68;2.17;;;3.40;99.90;;;;;;5027018;28;20052;-61
2023/01/19 07:28:02;;;;;;;13.32;1.50;;;3.40;99.90;;;;;;5026956;28;20110;-62
2023/01/19 07:30:28;;;;;;;10.52;1.55;;;3.50;99.90;;;;;;5036332;28;20153;-62
2023/01/19 07:32:56;;;;;;;11.00;1.63;;;3.50;99.90;;;;;;5037862;28;20129;-62
2023/01/19 07:35:22;;;;;;;15.57;1.90;;;3.50;99.90;;;;;;5038513;28;20025;-62
2023/01/19 07:37:48;;;;;;;12.52;2.00;;;3.50;99.90;;;;;;5039256;28;20080;-61
2023/01/19 07:40:14;;;;;;;15.20;2.05;;;3.50;99.90;;;;;;5033530;28;20095;-62
2023/01/19 07:42:45;;;;;;;11.40;1.67;;;3.40;99.90;;;;;;5028623;28;20049;-62
2023/01/19 07:45:11;;;;;;;12.98;1.70;;;3.40;99.90;;;;;;5027044;28;20041;-64
2023/01/19 07:47:36;;;;;;;10.80;1.95;;;3.40;99.90;;;;;;5024888;28;20057;-62
2023/01/19 07:50:02;;;;;;;10.35;1.75;;;3.40;99.90;;;;;;5009949;28;20523;-61
2023/01/19 07:52:27;;;;;;;12.75;2.22;;;3.40;99.90;;;;;;5029450;28;20037;-62
2023/01/19 07:54:53;;;;;;;9.57;1.70;;;3.30;99.90;;;;;;5031960;28;20069;-62
2023/01/19 07:57:19;;;;;;;14.85;1.88;;;3.30;99.90;;;;;;5027043;28;20190;-63
2023/01/19 07:59:44;;;;;;;11.52;1.52;;;3.40;99.90;;;;;;5029605;28;20064;-63
2023/01/19 08:02:10;;;;;;;11.55;1.80;;;3.40;99.90;;;;;;5035118;28;20059;-63
2023/01/19 08:04:35;;;;;;;8.82;1.80;;;3.40;99.90;;;;;;5031749;28;20122;-62
2023/01/19 08:07:02;;;;;;;15.75;1.75;;;3.40;99.90;;;;;;5037142;28;20142;-61
2023/01/19 08:09:28;;;;;;;12.82;1.60;;;3.50;99.90;;;;;;5036182;28;20552;-63
2023/01/19 08:11:53;;;;;;;14.10;1.50;;;3.40;99.90;;;;;;5032459;28;20033;-62
2023/01/19 08:14:19;;;;;;;11.30;2.00;;;3.50;99.90;;;;;;5027085;28;20144;-63
2023/01/19 08:16:44;;;;;;;15.63;2.17;;;3.50;99.90;;;;;;5024874;28;20413;-63
2023/01/19 08:19:10;;;;;;;13.35;2.10;;;3.50;99.90;;;;;;5034576;28;20048;-62
2023/01/19 08:21:37;;;;;;;11.00;1.92;;;3.60;99.90;;;;;;5035241;28;20421;-62
2023/01/19 08:24:03;;;;;;;13.18;1.80;;;3.50;99.90;;;;;;5030015;28;20480;-63
2023/01/19 08:26:31;;;;;;;12.38;2.22;;;3.60;99.90;;;;;;5034985;28;20040;-63
2023/01/19 08:28:59;;;;;;;9.48;1.65;;;3.60;99.90;;;;;;5039717;28;20037;-62
2023/01/19 08:31:25;;;;;;;9.20;1.73;;;3.60;99.90;;;;;;5044141;28;20037;-63
2023/01/19 08:33:51;;;;;;;18.27;2.35;;;3.60;99.90;;;;;;5041768;28;20503;-64
2023/01/19 08:36:17;;;;;;;9.15;1.80;;;3.60;99.90;;;;;;5043162;28;20029;-63
2023/01/19 08:38:44;;;;;;;15.48;2.20;;;3.60;99.90;;;;;;5035975;28;20037;-63
2023/01/19 08:41:11;;;;;;;15.10;1.90;;;3.60;99.90;;;;;;5043413;28;20068;-64
2023/01/19 08:43:39;;;;;;;13.23;2.25;;;3.50;99.90;;;;;;5042224;28;20041;-62
2023/01/19 08:46:05;;;;;;;14.40;2.30;;;3.50;99.90;;;;;;5031966;28;20076;-64
2023/01/19 08:48:31;;;;;;;15.38;2.28;;;3.50;99.90;;;;;;5035260;28;20135;-62
2023/01/19 08:50:57;;;;;;;15.10;2.40;;;3.40;99.90;;;;;;5038701;28;20034;-61
2023/01/19 08:53:23;;;;;;;17.13;2.28;;;3.50;99.90;;;;;;5039028;28;20080;-63
2023/01/19 08:55:53;;;;;;;10.10;2.38;;;3.40;99.90;;;;;;5037215;28;20065;-62
2023/01/19 08:58:19;;;;;;;17.88;2.50;;;3.40;99.90;;;;;;5042998;28;20116;-62
2023/01/19 09:00:45;;;;;;;13.45;2.65;;;3.40;99.90;;;;;;5039348;28;20116;-62
2023/01/19 09:03:12;;;;;;;20.10;2.50;;;3.30;99.90;;;;;;5037422;28;20384;-62
2023/01/19 09:05:38;;;;;;;16.35;2.63;;;3.30;99.90;;;;;;5038872;28;20415;-62
2023/01/19 09:08:10;;;;;;;15.65;1.95;;;3.30;99.90;;;;;;5039845;28;20033;-63
2023/01/19 09:10:37;;;;;;;17.85;2.30;;;3.30;99.90;;;;;;5035900;28;20052;-62
2023/01/19 09:13:09;;;;;;;12.30;1.88;;;3.30;99.90;;;;;;5040542;28;20476;-63
2023/01/19 09:15:36;;;;;;;12.27;2.05;;;3.30;99.90;;;;;;5023674;28;20088;-61
2023/01/19 09:18:04;;;;;;;17.65;2.33;;;3.30;99.90;;;;;;5041895;28;20045;-63
2023/01/19 09:20:31;;;;;;;18.27;2.42;;;3.30;99.90;;;;;;5035067;28;20045;-62
2023/01/19 09:22:57;;;;;;;10.15;1.90;;;3.30;99.90;;;;;;5029303;28;20037;-63
2023/01/19 09:25:23;;;;;;;14.57;2.40;;;3.30;99.90;;;;;;5028600;28;20041;-63
2023/01/19 09:27:49;;;;;;;17.05;2.47;;;3.30;99.90;;;;;;5030246;28;20033;-62
2023/01/19 09:33:55;;;;;;;11.73;1.92;;;3.40;99.90;;;;;;5039379;28;20330;-63
2023/01/19 09:36:21;;;;;;;13.65;2.50;;;3.40;99.90;;;;;;5048306;28;20033;-63
2023/01/19 09:38:47;;;;;;;18.08;2.05;;;3.50;99.90;;;;;;5030736;28;20042;-63
2023/01/19 09:41:20;;;;;;;12.85;1.70;;;3.60;99.90;;;;;;5029378;28;20510;-63
2023/01/19 09:43:59;;;;;;;14.82;2.03;;;3.60;99.90;;;;;;5041170;28;20396;-63
2023/01/19 09:46:33;;;;;;;13.90;2.22;;;3.60;99.90;;;;;;5029879;28;20037;-63
2023/01/19 09:49:03;;;;;;;10.55;1.85;;;3.60;99.90;;;;;;5033950;28;20053;-63
2023/01/19 09:51:37;;;;;;;12.50;2.30;;;3.60;99.90;;;;;;5034265;28;20077;-63
2023/01/19 09:54:14;;;;;;;19.42;2.20;;;3.70;99.90;;;;;;5046756;28;20076;-63
2023/01/19 09:56:45;;;;;;;11.23;2.13;;;3.70;99.90;;;;;;5044490;28;20283;-64
2023/01/19 09:59:19;;;;;;;11.30;1.92;;;3.70;99.90;;;;;;5037158;28;20048;-63
2023/01/19 10:01:56;;;;;;;18.33;2.20;;;3.70;99.90;;;;;;5029858;28;20403;-63
2023/01/19 10:04:41;;;;;;;12.73;2.00;;;3.80;99.90;;;;;;5036385;28;20037;-64
2023/01/19 10:07:51;;;;;;;14.88;1.85;;;3.80;99.90;;;;;;5040700;28;20333;-63
2023/01/19 10:10:23;;;;;;;7.80;2.42;;;3.90;99.90;;;;;;5042088;28;20040;-64
2023/01/19 10:13:13;;;;;;;15.80;2.30;;;4.00;99.90;;;;;;5031954;28;20428;-62
2023/01/19 10:16:13;;;;;;;13.15;2.00;;;4.00;99.90;;;;;;5035197;28;20080;-63
2023/01/19 10:18:46;;;;;;;17.65;2.00;;;4.10;99.90;;;;;;5039854;28;20049;-62
2023/01/19 10:21:36;;;;;;;15.50;2.72;;;4.10;99.90;;;;;;5044339;28;20033;-64
2023/01/19 10:24:32;;;;;;;10.73;1.95;;;4.10;99.90;;;;;;5029764;28;20495;-63
2023/01/19 10:26:57;;;;;;;14.00;2.22;;;4.20;99.90;;;;;;5046200;28;20049;-63
2023/01/19 10:29:35;;;;;;;12.30;1.70;;;4.20;99.90;;;;;;5032606;28;20479;-62
2023/01/19 10:32:25;;;;;;;13.90;2.17;;;4.20;99.90;;;;;;5042149;28;20096;-63
2023/01/19 10:34:52;;;;;;;9.00;1.80;;;4.40;99.90;;;;;;5046780;28;20044;-64
2023/01/19 10:37:37;;;;;;;13.60;1.85;;;4.40;99.90;;;;;;5040592;28;20083;-62
2023/01/19 10:40:11;;;;;;;13.60;1.40;;;4.40;99.90;;;;;;5042173;28;20041;-62
2023/01/19 10:42:39;;;;;;;11.48;1.80;;;4.50;99.90;;;;;;5040082;28;20542;-63
2023/01/19 10:45:20;;;;;;;13.68;1.60;;;4.50;99.90;;;;;;5034320;28;20033;-63
2023/01/19 10:47:47;;;;;;;10.07;1.50;;;4.60;99.90;;;;;;5047026;28;20045;-62
2023/01/19 10:50:23;;;;;;;12.57;1.80;;;4.60;99.90;;;;;;5033154;28;20041;-64
2023/01/19 10:52:52;;;;;;;8.48;1.52;;;4.60;99.90;;;;;;5041087;28;20462;-63
2023/01/19 10:55:30;;;;;;;8.68;1.70;;;4.70;99.90;;;;;;5046581;28;20098;-63
2023/01/19 10:57:57;;;;;;;11.57;1.90;;;4.70;99.90;;;;;;5038260;28;20120;-63
2023/01/19 11:00:36;;;;;;;7.85;1.60;;;4.70;99.90;;;;;;5043845;28;20071;-62
2023/01/19 11:03:04;;;;;;;11.80;1.80;;;4.70;99.90;;;;;;5044394;28;20088;-63
2023/01/19 11:05:32;;;;;;;8.02;1.48;;;4.70;99.90;;;;;;5044103;28;20044;-63
2023/01/19 11:07:58;;;;;;;7.95;1.50;;;4.70;99.90;;;;;;5044579;28;20034;-63
2023/01/19 11:10:28;;;;;;;5.93;1.52;;;4.70;99.90;;;;;;5038179;28;20042;-63
2023/01/19 11:13:31;;;;;;;11.23;2.05;;;4.70;99.90;;;;;;5036176;28;20405;-62
2023/01/19 11:16:05;;;;;;;8.05;1.55;;;4.80;99.90;;;;;;5032033;28;20083;-62
2023/01/19 11:18:37;;;;;;;9.93;1.90;;;4.70;99.90;;;;;;5032411;28;20406;-63
2023/01/19 11:21:11;;;;;;;9.27;1.20;;;4.80;99.90;;;;;;5033629;28;20048;-62
2023/01/19 11:23:46;;;;;;;13.75;1.75;;;4.80;99.90;;;;;;5032372;28;20045;-63
2023/01/19 11:26:25;;;;;;;10.85;1.38;;;4.80;99.90;;;;;;5038902;28;20124;-63
2023/01/19 11:28:53;;;;;;;8.85;1.73;;;4.80;99.90;;;;;;5027559;28;20468;-63
2023/01/19 11:31:28;;;;;;;5.25;1.13;;;4.80;99.90;;;;;;5047298;28;20471;-61
2023/01/19 11:33:56;;;;;;;12.43;1.85;;;4.80;99.90;;;;;;5031994;28;20058;-62
2023/01/19 11:36:25;;;;;;;10.00;1.42;;;4.90;99.90;;;;;;5044859;28;20033;-63
2023/01/19 11:39:19;;;;;;;4.78;1.20;;;4.90;99.90;;;;;;5035910;28;20052;-63
2023/01/19 11:41:49;;;;;;;6.82;1.33;;;4.90;99.90;;;;;;5041421;28;20052;-63
2023/01/19 11:46:45;;;;;;;11.50;1.48;;;4.90;99.90;;;;;;5270136;22;20102;-63
2023/01/19 11:49:31;;;;;;;7.30;1.05;;;5.00;99.90;;;;;;5068234;28;20040;-63
2023/01/19 11:52:05;;;;;;;8.50;1.20;;;5.10;99.90;;;;;;5065426;28;20098;-62
2023/01/19 11:54:39;;;;;;;6.00;1.27;;;5.20;99.90;;;;;;5069361;28;20032;-63
2023/01/19 11:57:12;;;;;;;8.77;1.30;;;5.30;99.90;;;;;;5061854;28;20036;-63
2023/01/19 11:59:38;;;;;;;15.27;1.70;;;5.40;99.90;;;;;;5059063;28;20040;-63
2023/01/19 12:02:25;;;;;;;7.80;1.38;;;5.40;99.90;;;;;;5066476;28;20086;-63
2023/01/19 12:04:56;;;;;;;7.07;1.40;;;5.50;99.90;;;;;;5066228;28;20076;-63
2023/01/19 12:07:28;;;;;;;5.88;0.93;;;5.60;99.90;;;;;;5062728;28;20040;-63
2023/01/19 12:10:01;;;;;;;9.90;1.50;;;5.70;99.90;;;;;;5066244;28;20111;-63
2023/01/19 12:12:28;;;;;;;9.13;1.17;;;5.70;99.90;;;;;;5062318;28;20040;-63
2023/01/19 12:15:17;;;;;;;7.82;1.02;;;5.80;99.90;;;;;;5052328;28;20120;-61
2023/01/19 12:17:48;;;;;;;8.23;1.25;;;5.80;99.90;;;;;;5065982;28;20044;-63
2023/01/19 12:20:36;;;;;;;8.18;1.40;;;5.80;99.90;;;;;;5048669;28;20090;-63
2023/01/19 12:23:10;;;;;;;5.22;1.23;;;5.80;99.90;;;;;;5060913;28;20515;-63
2023/01/19 12:25:52;;;;;;;7.47;1.63;;;5.90;99.90;;;;;;5064208;28;20067;-63
2023/01/19 12:28:25;;;;;;;11.60;1.83;;;6.00;99.90;;;;;;5056932;28;20572;-64
2023/01/19 12:30:51;;;;;;;6.88;1.42;;;6.00;99.90;;;;;;5042603;28;20283;-62
2023/01/19 12:33:36;;;;;;;11.98;1.50;;;6.00;99.90;;;;;;5044177;28;20055;-61
2023/01/19 12:36:05;;;;;;;15.98;1.67;;;6.00;99.90;;;;;;5042609;28;20047;-63
2023/01/19 12:38:56;;;;;;;9.98;1.80;;;6.00;99.90;;;;;;5051353;28;20058;-63
2023/01/19 12:41:42;;;;;;;10.15;1.30;;;6.00;99.90;;;;;;5045217;28;20453;-63
2023/01/19 12:44:14;;;;;;;7.90;1.35;;;6.00;99.90;;;;;;5047640;28;20056;-63
2023/01/19 12:47:15;;;;;;;8.00;1.30;;;5.90;99.90;;;;;;5043906;28;20090;-63
2023/01/19 12:49:49;;;;;;;7.95;1.30;;;5.80;99.90;;;;;;5058064;28;20466;-62
2023/01/19 12:52:18;;;;;;;8.55;2.03;;;5.70;99.90;;;;;;5041104;28;20040;-63
2023/01/19 12:54:52;;;;;;;9.25;1.23;;;5.60;99.90;;;;;;5041656;28;20399;-63
2023/01/19 12:57:28;;;;;;;7.70;1.50;;;5.50;99.90;;;;;;5049388;28;20037;-61
2023/01/19 13:00:04;;;;;;;11.05;1.60;;;5.50;99.90;;;;;;5052480;28;20048;-62
2023/01/19 13:02:45;;;;;;;8.20;1.42;;;5.60;99.90;;;;;;5050555;28;20091;-61
2023/01/19 13:05:16;;;;;;;9.18;1.20;;;5.70;99.90;;;;;;5055098;28;20044;-61
2023/01/19 13:08:19;;;;;;;8.70;1.27;;;5.90;99.90;;;;;;5050837;28;20041;-62
2023/01/19 13:11:08;;;;;;;6.90;1.65;;;6.40;99.90;;;;;;4993607;28;20038;-63
2023/01/19 13:13:38;;;;;;;12.13;1.00;;;6.20;99.90;;;;;;5047745;28;20052;-61
2023/01/19 13:16:23;;;;;;;5.07;1.10;;;6.00;99.90;;;;;;5052480;28;20036;-62
2023/01/19 13:19:01;;;;;;;7.40;1.25;;;5.80;99.90;;;;;;5052608;28;20040;-63
2023/01/19 13:21:32;;;;;;;5.75;1.40;;;5.70;99.90;;;;;;5052912;28;20059;-62
2023/01/19 13:24:04;;;;;;;9.70;1.48;;;5.60;99.90;;;;;;5052047;28;20044;-62